createdAt,value
2023-05-09T00:00:06.456Z,4.23
2023-05-09T00:01:05.870Z,4.18
2023-05-09T00:01:40.286Z,4.16
2023-05-09T00:02:13.479Z,4.13
2023-05-09T00:02:46.842Z,4.10
2023-05-09T00:03:20.132Z,4.09
2023-05-09T00:03:53.333Z,4.06
2023-05-09T00:04:26.584Z,4.05
2023-05-09T00:04:59.748Z,4.04
2023-05-09T00:05:32.923Z,4.03
2023-05-09T00:06:06.981Z,4.00
2023-05-09T00:06:40.143Z,3.98
2023-05-09T00:07:13.273Z,3.97
2023-05-09T00:07:46.390Z,3.97
2023-05-09T00:08:19.697Z,3.99
2023-05-09T00:08:52.700Z,4.00
2023-05-09T00:09:25.755Z,3.98
2023-05-09T00:09:58.930Z,3.97
2023-05-09T00:10:32.080Z,3.94
2023-05-09T00:11:05.387Z,3.93
2023-05-09T00:11:38.830Z,3.95
2023-05-09T00:12:12.607Z,3.97
2023-05-09T00:12:45.878Z,3.99
2023-05-09T00:13:19.303Z,4.00
2023-05-09T00:13:53.504Z,4.00
2023-05-09T00:14:27.612Z,4.01
2023-05-09T00:15:00.647Z,4.02
2023-05-09T00:15:33.794Z,4.02
2023-05-09T00:16:07.220Z,4.01
2023-05-09T00:16:40.852Z,3.99
2023-05-09T00:17:14.795Z,3.98
2023-05-09T00:17:48.231Z,3.97
2023-05-09T00:18:22.229Z,3.98
2023-05-09T00:18:56.353Z,3.99
2023-05-09T00:19:29.549Z,3.99
2023-05-09T00:20:05.357Z,4.00
2023-05-09T00:20:38.519Z,4.01
2023-05-09T00:21:11.857Z,4.02
2023-05-09T00:21:45.012Z,4.02
2023-05-09T00:22:18.788Z,4.02
2023-05-09T00:22:52.445Z,4.02
2023-05-09T00:23:25.599Z,4.03
2023-05-09T00:23:59.303Z,4.03
2023-05-09T00:24:32.452Z,4.03
2023-05-09T00:25:06.283Z,4.04
2023-05-09T00:25:39.523Z,4.04
2023-05-09T00:26:12.659Z,4.04
2023-05-09T00:26:45.831Z,4.05
2023-05-09T00:27:19.103Z,4.05
2023-05-09T00:27:52.380Z,4.06
2023-05-09T00:28:25.560Z,4.06
2023-05-09T00:28:58.641Z,4.06
2023-05-09T00:29:31.794Z,4.06
2023-05-09T00:30:05.930Z,4.06
2023-05-09T00:30:39.190Z,4.05
2023-05-09T00:31:12.390Z,4.06
2023-05-09T00:31:45.747Z,4.05
2023-05-09T00:32:19.021Z,4.05
2023-05-09T00:32:52.338Z,4.05
2023-05-09T00:33:28.050Z,4.05
2023-05-09T00:34:01.265Z,4.05
2023-05-09T00:34:34.549Z,4.04
2023-05-09T00:35:08.373Z,4.03
2023-05-09T00:35:41.519Z,4.03
2023-05-09T00:36:14.665Z,4.03
2023-05-09T00:36:47.858Z,4.03
2023-05-09T00:37:21.355Z,4.03
2023-05-09T00:37:54.749Z,4.02
2023-05-09T00:38:28.442Z,4.02
2023-05-09T00:39:01.725Z,4.02
2023-05-09T00:39:34.992Z,4.02
2023-05-09T00:40:09.450Z,4.00
2023-05-09T00:40:42.432Z,3.99
2023-05-09T00:41:15.719Z,3.99
2023-05-09T00:41:48.859Z,3.98
2023-05-09T00:42:21.990Z,3.98
2023-05-09T00:42:58.438Z,3.98
2023-05-09T00:43:31.646Z,3.99
2023-05-09T00:44:04.921Z,3.99
2023-05-09T00:44:38.113Z,3.99
2023-05-09T00:45:11.841Z,3.99
2023-05-09T00:45:45.849Z,3.99
2023-05-09T00:46:19.129Z,3.98
2023-05-09T00:46:52.302Z,3.97
2023-05-09T00:47:25.709Z,3.96
2023-05-09T00:47:59.094Z,3.96
2023-05-09T00:48:32.372Z,3.96
2023-05-09T00:49:05.705Z,3.96
2023-05-09T00:49:38.862Z,3.95
2023-05-09T00:50:12.276Z,3.94
2023-05-09T00:50:46.500Z,3.93
2023-05-09T00:51:20.541Z,3.92
2023-05-09T00:51:54.802Z,3.92
2023-05-09T00:52:28.172Z,3.91
2023-05-09T00:53:01.423Z,3.91
2023-05-09T00:53:34.683Z,3.91
2023-05-09T00:54:09.280Z,3.91
2023-05-09T00:54:42.379Z,3.90
2023-05-09T00:55:16.670Z,3.90
2023-05-09T00:55:49.998Z,3.89
2023-05-09T00:56:23.195Z,3.87
2023-05-09T00:56:56.305Z,3.86
2023-05-09T00:57:29.523Z,3.85
2023-05-09T00:58:05.719Z,3.83
2023-05-09T00:58:38.963Z,3.81
2023-05-09T00:59:12.230Z,3.80
2023-05-09T00:59:45.479Z,3.79
2023-05-09T01:00:18.826Z,3.78
2023-05-09T01:00:52.310Z,3.79
2023-05-09T01:01:25.606Z,3.79
2023-05-09T01:01:58.759Z,3.79
2023-05-09T01:02:32.472Z,3.78
2023-05-09T01:03:06.118Z,3.79
2023-05-09T01:03:40.063Z,3.79
2023-05-09T01:04:14.308Z,3.79
2023-05-09T01:04:47.872Z,3.80
2023-05-09T01:05:22.928Z,3.80
2023-05-09T01:05:58.789Z,3.80
2023-05-09T01:06:41.880Z,3.80
2023-05-09T01:07:27.034Z,3.79
2023-05-09T01:08:25.708Z,3.79
2023-05-09T01:09:17.348Z,3.80
2023-05-09T01:09:56.211Z,3.80
2023-05-09T01:10:35.246Z,3.79
2023-05-09T01:11:13.833Z,3.79
2023-05-09T01:11:59.630Z,3.79
2023-05-09T01:12:47.917Z,3.79
2023-05-09T01:13:21.198Z,3.77
2023-05-09T01:14:07.535Z,3.76
2023-05-09T01:14:50.004Z,3.74
2023-05-09T01:15:36.777Z,3.74
2023-05-09T01:16:26.922Z,3.74
2023-05-09T01:17:00.188Z,3.74
2023-05-09T01:17:33.337Z,3.74
2023-05-09T01:18:12.182Z,3.74
2023-05-09T01:18:45.435Z,3.74
2023-05-09T01:19:36.939Z,3.73
2023-05-09T01:20:21.817Z,3.74
2023-05-09T01:20:55.073Z,3.73
2023-05-09T01:21:29.602Z,3.73
2023-05-09T01:22:04.466Z,3.73
2023-05-09T01:22:39.699Z,3.72
2023-05-09T01:23:13.468Z,3.71
2023-05-09T01:24:05.216Z,3.71
2023-05-09T01:24:56.518Z,3.71
2023-05-09T01:25:32.875Z,3.68
2023-05-09T01:26:08.740Z,3.68
2023-05-09T01:26:47.313Z,3.67
2023-05-09T01:27:39.224Z,3.65
2023-05-09T01:28:30.846Z,3.62
2023-05-09T01:29:22.499Z,3.57
2023-05-09T01:29:59.991Z,3.54
2023-05-09T01:30:34.849Z,3.53
2023-05-09T01:31:09.091Z,3.54
2023-05-09T01:31:45.205Z,3.54
2023-05-09T01:32:20.123Z,3.55
2023-05-09T01:32:58.021Z,3.55
2023-05-09T01:33:34.003Z,3.56
2023-05-09T01:34:08.575Z,3.56
2023-05-09T01:34:43.260Z,3.56
2023-05-09T01:35:17.368Z,3.56
2023-05-09T01:35:53.029Z,3.57
2023-05-09T01:36:29.769Z,3.57
2023-05-09T01:37:04.945Z,3.57
2023-05-09T01:37:39.865Z,3.57
2023-05-09T01:38:15.993Z,3.58
2023-05-09T01:38:50.763Z,3.58
2023-05-09T01:39:24.904Z,3.58
2023-05-09T01:40:06.014Z,3.57
2023-05-09T01:40:40.922Z,3.57
2023-05-09T01:41:16.222Z,3.56
2023-05-09T01:41:49.883Z,3.56
2023-05-09T01:42:24.048Z,3.56
2023-05-09T01:42:58.721Z,3.56
2023-05-09T01:43:33.591Z,3.55
2023-05-09T01:44:08.735Z,3.55
2023-05-09T01:44:43.003Z,3.56
2023-05-09T01:45:17.421Z,3.57
2023-05-09T01:45:52.073Z,3.56
2023-05-09T01:46:25.944Z,3.56
2023-05-09T01:46:59.998Z,3.56
2023-05-09T01:47:34.126Z,3.55
2023-05-09T01:48:08.857Z,3.56
2023-05-09T01:48:43.051Z,3.56
2023-05-09T01:49:17.708Z,3.56
2023-05-09T01:49:52.025Z,3.56
2023-05-09T01:50:25.366Z,3.56
2023-05-09T01:50:59.401Z,3.56
2023-05-09T01:51:34.582Z,3.55
2023-05-09T01:52:09.081Z,3.55
2023-05-09T01:52:43.086Z,3.55
2023-05-09T01:53:17.552Z,3.55
2023-05-09T01:53:51.888Z,3.55
2023-05-09T01:54:26.498Z,3.55
2023-05-09T01:55:01.590Z,3.54
2023-05-09T01:55:36.508Z,3.54
2023-05-09T01:56:10.175Z,3.53
2023-05-09T01:56:44.029Z,3.54
2023-05-09T01:57:18.917Z,3.53
2023-05-09T01:57:53.570Z,3.52
2023-05-09T01:58:27.364Z,3.52
2023-05-09T01:59:02.518Z,3.51
2023-05-09T01:59:36.363Z,3.51
2023-05-09T02:00:10.845Z,3.51
2023-05-09T02:00:45.509Z,3.49
2023-05-09T02:01:19.933Z,3.47
2023-05-09T02:01:55.356Z,3.47
2023-05-09T02:02:29.336Z,3.46
2023-05-09T02:03:04.415Z,3.46
2023-05-09T02:03:38.304Z,3.44
2023-05-09T02:04:11.964Z,3.44
2023-05-09T02:04:45.657Z,3.44
2023-05-09T02:05:19.354Z,3.43
2023-05-09T02:05:53.700Z,3.44
2023-05-09T02:06:29.994Z,3.44
2023-05-09T02:07:04.344Z,3.45
2023-05-09T02:07:38.176Z,3.44
2023-05-09T02:08:11.935Z,3.44
2023-05-09T02:08:45.674Z,3.44
2023-05-09T02:09:19.706Z,3.44
2023-05-09T02:09:54.461Z,3.43
2023-05-09T02:10:28.515Z,3.43
2023-05-09T02:11:01.716Z,3.43
2023-05-09T02:11:34.908Z,3.42
2023-05-09T02:12:08.176Z,3.41
2023-05-09T02:12:41.313Z,3.41
2023-05-09T02:13:14.628Z,3.40
2023-05-09T02:13:47.775Z,3.40
2023-05-09T02:14:21.013Z,3.40
2023-05-09T02:14:54.009Z,3.40
2023-05-09T02:15:27.632Z,3.39
2023-05-09T02:16:01.211Z,3.39
2023-05-09T02:16:35.599Z,3.39
2023-05-09T02:17:10.876Z,3.38
2023-05-09T02:17:44.024Z,3.37
2023-05-09T02:18:17.277Z,3.37
2023-05-09T02:18:50.516Z,3.37
2023-05-09T02:19:23.487Z,3.35
2023-05-09T02:19:57.009Z,3.34
2023-05-09T02:20:30.154Z,3.33
2023-05-09T02:21:03.969Z,3.33
2023-05-09T02:21:37.433Z,3.33
2023-05-09T02:22:12.276Z,3.33
2023-05-09T02:22:45.919Z,3.33
2023-05-09T02:23:20.504Z,3.34
2023-05-09T02:23:53.934Z,3.34
2023-05-09T02:24:27.270Z,3.34
2023-05-09T02:25:01.896Z,3.34
2023-05-09T02:25:35.262Z,3.34
2023-05-09T02:26:08.701Z,3.34
2023-05-09T02:26:42.506Z,3.34
2023-05-09T02:27:15.935Z,3.34
2023-05-09T02:27:50.025Z,3.34
2023-05-09T02:28:23.643Z,3.34
2023-05-09T02:28:57.228Z,3.32
2023-05-09T02:29:40.013Z,3.32
2023-05-09T02:30:21.265Z,3.31
2023-05-09T02:30:55.946Z,3.31
2023-05-09T02:31:30.009Z,3.30
2023-05-09T02:32:04.014Z,3.27
2023-05-09T02:32:39.062Z,3.24
2023-05-09T02:33:12.921Z,3.21
2023-05-09T02:33:48.178Z,3.20
2023-05-09T02:34:21.756Z,3.19
2023-05-09T02:34:55.941Z,3.18
2023-05-09T02:35:29.276Z,3.18
2023-05-09T02:36:02.787Z,3.18
2023-05-09T02:36:36.017Z,3.19
2023-05-09T02:37:10.436Z,3.18
2023-05-09T02:37:44.423Z,3.18
2023-05-09T02:38:18.131Z,3.18
2023-05-09T02:38:51.685Z,3.18
2023-05-09T02:39:24.711Z,3.16
2023-05-09T02:39:58.616Z,3.16
2023-05-09T02:40:31.901Z,3.16
2023-05-09T02:41:05.098Z,3.16
2023-05-09T02:41:38.307Z,3.15
2023-05-09T02:42:12.099Z,3.14
2023-05-09T02:42:45.370Z,3.13
2023-05-09T02:43:18.512Z,3.13
2023-05-09T02:43:51.766Z,3.14
2023-05-09T02:44:24.968Z,3.13
2023-05-09T02:44:58.015Z,3.12
2023-05-09T02:45:31.394Z,3.12
2023-05-09T02:46:04.745Z,3.12
2023-05-09T02:46:37.845Z,3.12
2023-05-09T02:47:11.143Z,3.11
2023-05-09T02:47:44.399Z,3.11
2023-05-09T02:48:17.626Z,3.11
2023-05-09T02:48:51.592Z,3.12
2023-05-09T02:49:32.060Z,3.12
2023-05-09T02:50:06.458Z,3.13
2023-05-09T02:50:39.744Z,3.14
2023-05-09T02:51:12.921Z,3.15
2023-05-09T02:51:46.192Z,3.15
2023-05-09T02:52:19.368Z,3.16
2023-05-09T02:52:52.720Z,3.16
2023-05-09T02:53:25.973Z,3.17
2023-05-09T02:53:59.196Z,3.16
2023-05-09T02:54:32.395Z,3.15
2023-05-09T02:55:07.545Z,3.15
2023-05-09T02:55:40.897Z,3.15
2023-05-09T02:56:14.135Z,3.15
2023-05-09T02:56:47.180Z,3.17
2023-05-09T02:57:21.237Z,3.15
2023-05-09T02:58:05.326Z,3.14
2023-05-09T02:58:51.259Z,3.10
2023-05-09T02:59:24.603Z,3.07
2023-05-09T02:59:57.611Z,3.08
2023-05-09T03:00:30.820Z,3.08
2023-05-09T03:01:04.161Z,3.07
2023-05-09T03:01:38.013Z,3.06
2023-05-09T03:02:11.243Z,3.05
2023-05-09T03:02:44.563Z,3.05
2023-05-09T03:03:18.418Z,3.06
2023-05-09T03:03:52.023Z,3.07
2023-05-09T03:04:25.847Z,3.08
2023-05-09T03:04:59.149Z,3.09
2023-05-09T03:05:32.412Z,3.10
2023-05-09T03:06:06.210Z,3.10
2023-05-09T03:06:39.381Z,3.11
2023-05-09T03:07:12.586Z,3.12
2023-05-09T03:07:46.242Z,3.12
2023-05-09T03:08:19.431Z,3.12
2023-05-09T03:08:52.562Z,3.12
2023-05-09T03:09:25.931Z,3.11
2023-05-09T03:09:59.213Z,3.08
2023-05-09T03:10:32.485Z,3.05
2023-05-09T03:11:06.126Z,3.03
2023-05-09T03:11:39.399Z,3.03
2023-05-09T03:12:12.633Z,3.03
2023-05-09T03:12:45.861Z,3.03
2023-05-09T03:13:19.253Z,3.02
2023-05-09T03:13:52.454Z,3.03
2023-05-09T03:14:26.215Z,3.04
2023-05-09T03:14:59.463Z,3.05
2023-05-09T03:15:32.752Z,3.06
2023-05-09T03:16:07.275Z,3.06
2023-05-09T03:16:40.500Z,3.07
2023-05-09T03:17:17.528Z,3.08
2023-05-09T03:17:50.549Z,3.10
2023-05-09T03:18:23.735Z,3.11
2023-05-09T03:18:57.110Z,3.11
2023-05-09T03:19:30.252Z,3.12
2023-05-09T03:20:05.807Z,3.11
2023-05-09T03:20:38.984Z,3.12
2023-05-09T03:21:12.973Z,3.13
2023-05-09T03:21:46.033Z,3.13
2023-05-09T03:22:19.237Z,3.14
2023-05-09T03:22:52.388Z,3.14
2023-05-09T03:23:25.661Z,3.14
2023-05-09T03:23:58.986Z,3.14
2023-05-09T03:24:32.155Z,3.13
2023-05-09T03:25:06.584Z,3.11
2023-05-09T03:25:39.713Z,3.09
2023-05-09T03:26:13.110Z,3.08
2023-05-09T03:26:46.349Z,3.08
2023-05-09T03:27:19.713Z,3.08
2023-05-09T03:27:52.702Z,3.09
2023-05-09T03:28:25.822Z,3.11
2023-05-09T03:28:59.196Z,3.12
2023-05-09T03:29:32.450Z,3.14
2023-05-09T03:30:06.063Z,3.15
2023-05-09T03:30:39.276Z,3.15
2023-05-09T03:31:12.578Z,3.14
2023-05-09T03:31:46.503Z,3.13
2023-05-09T03:32:19.693Z,3.13
2023-05-09T03:32:52.786Z,3.13
2023-05-09T03:33:26.120Z,3.14
2023-05-09T03:33:59.282Z,3.15
2023-05-09T03:34:32.647Z,3.16
2023-05-09T03:35:05.927Z,3.17
2023-05-09T03:35:39.214Z,3.19
2023-05-09T03:36:12.326Z,3.20
2023-05-09T03:36:45.670Z,3.21
2023-05-09T03:37:19.254Z,3.22
2023-05-09T03:37:52.335Z,3.22
2023-05-09T03:38:25.599Z,3.23
2023-05-09T03:38:58.803Z,3.25
2023-05-09T03:39:32.091Z,3.26
2023-05-09T03:40:06.264Z,3.26
2023-05-09T03:40:39.501Z,3.26
2023-05-09T03:41:13.464Z,3.27
2023-05-09T03:41:46.757Z,3.26
2023-05-09T03:42:20.058Z,3.25
2023-05-09T03:42:53.165Z,3.26
2023-05-09T03:43:26.667Z,3.26
2023-05-09T03:43:59.794Z,3.27
2023-05-09T03:44:33.079Z,3.28
2023-05-09T03:45:06.711Z,3.28
2023-05-09T03:45:39.888Z,3.30
2023-05-09T03:46:13.140Z,3.32
2023-05-09T03:46:46.443Z,3.32
2023-05-09T03:47:19.713Z,3.32
2023-05-09T03:47:53.022Z,3.33
2023-05-09T03:48:26.372Z,3.33
2023-05-09T03:48:59.677Z,3.34
2023-05-09T03:49:32.882Z,3.36
2023-05-09T03:50:06.443Z,3.37
2023-05-09T03:50:39.535Z,3.38
2023-05-09T03:51:12.674Z,3.36
2023-05-09T03:51:45.945Z,3.35
2023-05-09T03:52:19.347Z,3.35
2023-05-09T03:52:52.576Z,3.35
2023-05-09T03:53:25.891Z,3.36
2023-05-09T03:53:59.124Z,3.35
2023-05-09T03:54:32.404Z,3.36
2023-05-09T03:55:06.152Z,3.38
2023-05-09T03:55:39.500Z,3.39
2023-05-09T03:56:12.801Z,3.39
2023-05-09T03:56:45.879Z,3.39
2023-05-09T03:57:19.059Z,3.39
2023-05-09T03:57:52.380Z,3.38
2023-05-09T03:58:26.138Z,3.38
2023-05-09T03:58:59.361Z,3.38
2023-05-09T03:59:32.359Z,3.39
2023-05-09T04:00:07.009Z,3.39
2023-05-09T04:00:41.243Z,3.41
2023-05-09T04:01:14.713Z,3.42
2023-05-09T04:01:48.035Z,3.45
2023-05-09T04:02:21.795Z,3.46
2023-05-09T04:02:55.148Z,3.48
2023-05-09T04:03:28.518Z,3.50
2023-05-09T04:04:01.874Z,3.51
2023-05-09T04:04:35.133Z,3.51
2023-05-09T04:05:08.403Z,3.51
2023-05-09T04:05:41.636Z,3.50
2023-05-09T04:06:15.430Z,3.50
2023-05-09T04:06:48.654Z,3.50
2023-05-09T04:07:22.164Z,3.50
2023-05-09T04:07:55.384Z,3.49
2023-05-09T04:08:28.624Z,3.50
2023-05-09T04:09:01.669Z,3.52
2023-05-09T04:09:35.006Z,3.54
2023-05-09T04:10:08.566Z,3.55
2023-05-09T04:10:41.840Z,3.55
2023-05-09T04:11:15.213Z,3.55
2023-05-09T04:11:48.371Z,3.56
2023-05-09T04:12:21.639Z,3.58
2023-05-09T04:12:54.860Z,3.59
2023-05-09T04:13:30.137Z,3.59
2023-05-09T04:14:07.340Z,3.59
2023-05-09T04:14:40.447Z,3.61
2023-05-09T04:15:13.943Z,3.63
2023-05-09T04:15:47.204Z,3.65
2023-05-09T04:16:20.479Z,3.66
2023-05-09T04:16:53.786Z,3.66
2023-05-09T04:17:27.323Z,3.68
2023-05-09T04:18:00.693Z,3.69
2023-05-09T04:18:33.988Z,3.71
2023-05-09T04:19:07.515Z,3.73
2023-05-09T04:19:40.827Z,3.75
2023-05-09T04:20:14.059Z,3.78
2023-05-09T04:20:47.216Z,3.81
2023-05-09T04:21:20.450Z,3.84
2023-05-09T04:21:53.703Z,3.86
2023-05-09T04:22:26.806Z,3.87
2023-05-09T04:23:00.214Z,3.88
2023-05-09T04:23:33.145Z,3.89
2023-05-09T04:24:06.515Z,3.92
2023-05-09T04:24:39.701Z,3.95
2023-05-09T04:25:14.743Z,3.97
2023-05-09T04:25:48.134Z,4.00
2023-05-09T04:26:22.832Z,4.03
2023-05-09T04:26:55.873Z,4.07
2023-05-09T04:27:29.113Z,4.10
2023-05-09T04:28:02.596Z,4.13
2023-05-09T04:28:36.244Z,4.16
2023-05-09T04:29:09.466Z,4.18
2023-05-09T04:29:42.614Z,4.21
2023-05-09T04:30:16.146Z,4.24
2023-05-09T04:30:49.416Z,4.27
2023-05-09T04:31:23.308Z,4.30
2023-05-09T04:31:56.997Z,4.33
2023-05-09T04:32:30.259Z,4.36
2023-05-09T04:33:03.439Z,4.39
2023-05-09T04:33:38.535Z,4.44
2023-05-09T04:34:12.172Z,4.47
2023-05-09T04:34:45.365Z,4.50
2023-05-09T04:35:20.488Z,4.54
2023-05-09T04:35:54.401Z,4.57
2023-05-09T04:36:27.945Z,4.60
2023-05-09T04:37:01.361Z,4.63
2023-05-09T04:37:34.698Z,4.66
2023-05-09T04:38:07.984Z,4.68
2023-05-09T04:38:41.257Z,4.72
2023-05-09T04:39:14.571Z,4.74
2023-05-09T04:39:47.706Z,4.76
2023-05-09T04:40:21.160Z,4.79
2023-05-09T04:40:54.384Z,4.82
2023-05-09T04:41:27.920Z,4.83
2023-05-09T04:42:01.305Z,4.87
2023-05-09T04:42:35.247Z,4.89
2023-05-09T04:43:08.455Z,4.92
2023-05-09T04:43:41.608Z,4.96
2023-05-09T04:44:14.791Z,5.00
2023-05-09T04:44:49.533Z,5.03
2023-05-09T04:45:22.870Z,5.07
2023-05-09T04:45:56.127Z,5.10
2023-05-09T04:46:29.257Z,5.13
2023-05-09T04:47:02.471Z,5.17
2023-05-09T04:47:35.603Z,5.21
2023-05-09T04:48:08.879Z,5.25
2023-05-09T04:48:41.886Z,5.29
2023-05-09T04:49:15.035Z,5.33
2023-05-09T04:49:48.322Z,5.37
2023-05-09T04:50:21.568Z,5.41
2023-05-09T04:50:54.640Z,5.45
2023-05-09T04:51:27.856Z,5.48
2023-05-09T04:52:01.081Z,5.51
2023-05-09T04:52:34.248Z,5.53
2023-05-09T04:53:08.520Z,5.56
2023-05-09T04:53:41.619Z,5.59
2023-05-09T04:54:15.031Z,5.63
2023-05-09T04:54:48.129Z,5.66
2023-05-09T04:55:21.384Z,5.69
2023-05-09T04:55:54.698Z,5.73
2023-05-09T04:56:27.909Z,5.76
2023-05-09T04:57:13.745Z,5.80
2023-05-09T04:57:50.226Z,5.84
2023-05-09T04:58:23.426Z,5.87
2023-05-09T04:58:56.621Z,5.91
2023-05-09T04:59:29.784Z,5.94
2023-05-09T05:00:02.991Z,5.97
2023-05-09T05:00:36.409Z,6.00
2023-05-09T05:01:09.748Z,6.03
2023-05-09T05:01:43.821Z,6.06
2023-05-09T05:02:17.157Z,6.09
2023-05-09T05:02:50.840Z,6.13
2023-05-09T05:03:24.216Z,6.17
2023-05-09T05:03:57.230Z,6.21
2023-05-09T05:04:30.767Z,6.24
2023-05-09T05:05:17.887Z,6.27
2023-05-09T05:05:51.312Z,6.32
2023-05-09T05:06:24.586Z,6.35
2023-05-09T05:06:57.815Z,6.38
2023-05-09T05:07:31.090Z,6.41
2023-05-09T05:08:04.419Z,6.45
2023-05-09T05:08:37.768Z,6.47
2023-05-09T05:09:11.019Z,6.51
2023-05-09T05:09:44.204Z,6.54
2023-05-09T05:10:17.401Z,6.57
2023-05-09T05:10:51.139Z,6.60
2023-05-09T05:11:24.312Z,6.63
2023-05-09T05:12:01.125Z,6.66
2023-05-09T05:12:35.858Z,6.70
2023-05-09T05:13:09.080Z,6.72
2023-05-09T05:13:42.302Z,6.75
2023-05-09T05:14:15.863Z,6.77
2023-05-09T05:14:49.002Z,6.79
2023-05-09T05:15:22.288Z,6.82
2023-05-09T05:15:56.628Z,6.84
2023-05-09T05:16:30.006Z,6.87
2023-05-09T05:17:03.483Z,6.91
2023-05-09T05:17:36.773Z,6.94
2023-05-09T05:18:10.202Z,6.96
2023-05-09T05:18:43.312Z,6.99
2023-05-09T05:19:16.572Z,7.03
2023-05-09T05:19:49.779Z,7.05
2023-05-09T05:20:23.204Z,7.08
2023-05-09T05:20:56.523Z,7.11
2023-05-09T05:21:29.813Z,7.13
2023-05-09T05:22:03.182Z,7.15
2023-05-09T05:22:36.790Z,7.17
2023-05-09T05:23:10.392Z,7.21
2023-05-09T05:23:43.607Z,7.23
2023-05-09T05:24:16.893Z,7.26
2023-05-09T05:24:50.338Z,7.29
2023-05-09T05:25:23.789Z,7.32
2023-05-09T05:25:56.967Z,7.36
2023-05-09T05:26:30.231Z,7.39
2023-05-09T05:27:03.488Z,7.41
2023-05-09T05:27:36.776Z,7.43
2023-05-09T05:28:09.955Z,7.47
2023-05-09T05:28:43.276Z,7.49
2023-05-09T05:29:17.730Z,7.51
2023-05-09T05:29:50.981Z,7.54
2023-05-09T05:30:24.003Z,7.58
2023-05-09T05:30:57.178Z,7.61
2023-05-09T05:31:30.278Z,7.63
2023-05-09T05:32:03.538Z,7.66
2023-05-09T05:32:36.567Z,7.68
2023-05-09T05:33:09.850Z,7.70
2023-05-09T05:33:42.871Z,7.72
2023-05-09T05:34:16.942Z,7.72
2023-05-09T05:34:50.148Z,7.74
2023-05-09T05:35:24.893Z,7.76
2023-05-09T05:35:57.985Z,7.78
2023-05-09T05:36:32.367Z,7.81
2023-05-09T05:37:05.703Z,7.84
2023-05-09T05:37:39.281Z,7.86
2023-05-09T05:38:12.534Z,7.89
2023-05-09T05:38:45.655Z,7.93
2023-05-09T05:39:18.812Z,7.93
2023-05-09T05:39:51.998Z,7.94
2023-05-09T05:40:25.363Z,7.96
2023-05-09T05:40:58.508Z,7.99
2023-05-09T05:41:31.658Z,8.01
2023-05-09T05:42:04.877Z,8.03
2023-05-09T05:42:37.902Z,8.06
2023-05-09T05:43:11.062Z,8.08
2023-05-09T05:43:44.316Z,8.12
2023-05-09T05:44:17.515Z,8.14
2023-05-09T05:44:50.574Z,8.17
2023-05-09T05:45:23.951Z,8.19
2023-05-09T05:45:57.251Z,8.21
2023-05-09T05:46:30.437Z,8.24
2023-05-09T05:47:03.549Z,8.25
2023-05-09T05:47:37.425Z,8.26
2023-05-09T05:48:11.093Z,8.28
2023-05-09T05:48:44.565Z,8.31
2023-05-09T05:49:17.953Z,8.34
2023-05-09T05:49:51.089Z,8.38
2023-05-09T05:50:24.292Z,8.41
2023-05-09T05:50:57.474Z,8.43
2023-05-09T05:51:31.253Z,8.46
2023-05-09T05:52:04.344Z,8.51
2023-05-09T05:52:41.755Z,8.53
2023-05-09T05:53:14.852Z,8.54
2023-05-09T05:53:47.906Z,8.56
2023-05-09T05:54:20.933Z,8.58
2023-05-09T05:54:54.236Z,8.61
2023-05-09T05:55:27.510Z,8.63
2023-05-09T05:56:00.805Z,8.65
2023-05-09T05:56:33.924Z,8.68
2023-05-09T05:57:08.412Z,8.69
2023-05-09T05:57:41.705Z,8.70
2023-05-09T05:58:14.909Z,8.73
2023-05-09T05:58:48.123Z,8.75
2023-05-09T05:59:21.294Z,8.77
2023-05-09T05:59:54.473Z,8.80
2023-05-09T06:00:27.725Z,8.82
2023-05-09T06:01:01.080Z,8.85
2023-05-09T06:01:34.245Z,8.87
2023-05-09T06:02:07.519Z,8.90
2023-05-09T06:02:44.880Z,8.90
2023-05-09T06:03:18.333Z,8.92
2023-05-09T06:03:55.015Z,8.94
2023-05-09T06:04:29.244Z,8.96
2023-05-09T06:05:04.008Z,8.97
2023-05-09T06:05:37.441Z,8.98
2023-05-09T06:06:10.865Z,8.98
2023-05-09T06:06:44.278Z,8.99
2023-05-09T06:07:17.570Z,9.01
2023-05-09T06:07:50.697Z,9.02
2023-05-09T06:08:23.897Z,9.02
2023-05-09T06:08:57.626Z,9.04
2023-05-09T06:09:30.889Z,9.04
2023-05-09T06:10:04.850Z,9.05
2023-05-09T06:10:37.989Z,9.06
2023-05-09T06:11:11.520Z,9.08
2023-05-09T06:11:45.098Z,9.10
2023-05-09T06:12:18.446Z,9.12
2023-05-09T06:12:51.509Z,9.13
2023-05-09T06:13:24.797Z,9.14
2023-05-09T06:13:58.000Z,9.16
2023-05-09T06:14:31.194Z,9.19
2023-05-09T06:15:07.338Z,9.22
2023-05-09T06:15:40.677Z,9.23
2023-05-09T06:16:19.169Z,9.24
2023-05-09T06:16:53.890Z,9.26
2023-05-09T06:17:27.314Z,9.29
2023-05-09T06:18:00.600Z,9.31
2023-05-09T06:18:35.754Z,9.32
2023-05-09T06:19:08.937Z,9.34
2023-05-09T06:19:42.088Z,9.35
2023-05-09T06:20:15.342Z,9.34
2023-05-09T06:20:48.347Z,9.33
2023-05-09T06:21:21.622Z,9.33
2023-05-09T06:21:54.796Z,9.34
2023-05-09T06:22:28.002Z,9.36
2023-05-09T06:23:01.073Z,9.37
2023-05-09T06:23:34.347Z,9.38
2023-05-09T06:24:14.207Z,9.40
2023-05-09T06:24:50.033Z,9.43
2023-05-09T06:25:23.384Z,9.46
2023-05-09T06:25:56.593Z,9.49
2023-05-09T06:26:30.314Z,9.51
2023-05-09T06:27:03.850Z,9.53
2023-05-09T06:27:37.103Z,9.55
2023-05-09T06:28:10.286Z,9.57
2023-05-09T06:28:43.401Z,9.60
2023-05-09T06:29:16.669Z,9.64
2023-05-09T06:29:49.886Z,9.67
2023-05-09T06:30:26.797Z,9.69
2023-05-09T06:31:01.116Z,9.73
2023-05-09T06:31:39.354Z,9.75
2023-05-09T06:32:12.520Z,9.79
2023-05-09T06:32:45.738Z,9.79
2023-05-09T06:33:18.999Z,9.79
2023-05-09T06:33:52.087Z,9.79
2023-05-09T06:34:25.430Z,9.81
2023-05-09T06:34:58.555Z,9.82
2023-05-09T06:35:31.706Z,9.85
2023-05-09T06:36:05.377Z,9.86
2023-05-09T06:36:38.608Z,9.88
2023-05-09T06:37:11.903Z,9.91
2023-05-09T06:37:47.016Z,9.93
2023-05-09T06:38:21.517Z,9.96
2023-05-09T06:38:54.723Z,9.99
2023-05-09T06:39:27.848Z,10.01
2023-05-09T06:40:00.974Z,10.03
2023-05-09T06:40:34.372Z,10.05
2023-05-09T06:41:07.589Z,10.06
2023-05-09T06:41:40.965Z,10.07
2023-05-09T06:42:14.188Z,10.10
2023-05-09T06:42:47.421Z,10.13
2023-05-09T06:43:20.717Z,10.17
2023-05-09T06:43:54.043Z,10.19
2023-05-09T06:44:27.398Z,10.21
2023-05-09T06:45:00.715Z,10.23
2023-05-09T06:45:34.471Z,10.26
2023-05-09T06:46:07.911Z,10.28
2023-05-09T06:46:41.365Z,10.29
2023-05-09T06:47:14.579Z,10.31
2023-05-09T06:47:47.809Z,10.32
2023-05-09T06:48:21.039Z,10.34
2023-05-09T06:48:54.176Z,10.37
2023-05-09T06:49:27.623Z,10.39
2023-05-09T06:50:00.803Z,10.42
2023-05-09T06:50:34.123Z,10.45
2023-05-09T06:51:07.596Z,10.47
2023-05-09T06:51:40.661Z,10.50
2023-05-09T06:52:15.932Z,10.53
2023-05-09T06:52:48.969Z,10.56
2023-05-09T06:53:22.105Z,10.58
2023-05-09T06:53:55.315Z,10.60
2023-05-09T06:54:28.354Z,10.63
2023-05-09T06:55:01.475Z,10.63
2023-05-09T06:55:34.500Z,10.62
2023-05-09T06:56:07.747Z,10.61
2023-05-09T06:56:41.027Z,10.62
2023-05-09T06:57:14.209Z,10.62
2023-05-09T06:57:47.369Z,10.63
2023-05-09T06:58:20.620Z,10.65
2023-05-09T06:58:53.960Z,10.67
2023-05-09T06:59:27.276Z,10.70
2023-05-09T07:00:00.727Z,10.73
2023-05-09T07:00:33.801Z,10.74
2023-05-09T07:01:06.970Z,10.75
2023-05-09T07:01:41.013Z,10.79
2023-05-09T07:02:14.255Z,10.80
2023-05-09T07:02:47.406Z,10.82
2023-05-09T07:03:20.726Z,10.85
2023-05-09T07:03:54.013Z,10.87
2023-05-09T07:04:27.270Z,10.90
2023-05-09T07:05:00.579Z,10.92
2023-05-09T07:05:34.570Z,10.95
2023-05-09T07:06:08.032Z,10.97
2023-05-09T07:06:41.364Z,10.99
2023-05-09T07:07:14.630Z,11.01
2023-05-09T07:07:48.014Z,11.03
2023-05-09T07:08:21.158Z,11.06
2023-05-09T07:08:54.280Z,11.08
2023-05-09T07:09:28.882Z,11.11
2023-05-09T07:10:11.452Z,11.12
2023-05-09T07:10:45.814Z,11.17
2023-05-09T07:11:19.145Z,11.20
2023-05-09T07:11:52.413Z,11.22
2023-05-09T07:12:25.692Z,11.24
2023-05-09T07:12:59.007Z,11.27
2023-05-09T07:13:32.106Z,11.29
2023-05-09T07:14:05.298Z,11.32
2023-05-09T07:14:38.634Z,11.35
2023-05-09T07:15:12.142Z,11.36
2023-05-09T07:15:45.703Z,11.37
2023-05-09T07:16:18.958Z,11.39
2023-05-09T07:16:52.060Z,11.42
2023-05-09T07:17:25.537Z,11.43
2023-05-09T07:17:58.736Z,11.45
2023-05-09T07:18:31.996Z,11.48
2023-05-09T07:19:05.204Z,11.51
2023-05-09T07:19:38.281Z,11.53
2023-05-09T07:20:11.642Z,11.55
2023-05-09T07:20:45.033Z,11.57
2023-05-09T07:21:18.147Z,11.59
2023-05-09T07:21:51.285Z,11.60
2023-05-09T07:22:24.560Z,11.62
2023-05-09T07:22:58.610Z,11.63
2023-05-09T07:23:31.654Z,11.62
2023-05-09T07:24:04.911Z,11.63
2023-05-09T07:24:38.084Z,11.65
2023-05-09T07:25:11.292Z,11.65
2023-05-09T07:25:45.365Z,11.67
2023-05-09T07:26:18.583Z,11.69
2023-05-09T07:26:51.663Z,11.71
2023-05-09T07:27:24.837Z,11.74
2023-05-09T07:27:58.160Z,11.76
2023-05-09T07:28:31.669Z,11.78
2023-05-09T07:29:04.895Z,11.81
2023-05-09T07:29:38.143Z,11.82
2023-05-09T07:30:11.614Z,11.83
2023-05-09T07:30:44.777Z,11.86
2023-05-09T07:31:18.064Z,11.87
2023-05-09T07:31:51.323Z,11.89
2023-05-09T07:32:24.434Z,11.90